createdAt,value
2018-12-15T00:03:29.030Z,2.21
2018-12-15T00:08:42.057Z,2.16
2018-12-15T00:13:54.447Z,2.19
2018-12-15T00:19:08.066Z,2.21
2018-12-15T00:24:20.742Z,2.20
2018-12-15T00:29:34.362Z,2.21
2018-12-15T00:34:46.753Z,2.28
2018-12-15T00:40:00.236Z,2.24
2018-12-15T00:45:17.408Z,2.26
2018-12-15T00:50:31.031Z,2.27
2018-12-15T00:55:43.049Z,2.28
2018-12-15T01:00:55.549Z,2.16
2018-12-15T01:06:08.832Z,2.23
2018-12-15T01:11:20.434Z,2.06
2018-12-15T01:16:33.518Z,2.13
2018-12-15T01:21:45.239Z,2.17
2018-12-15T01:26:58.034Z,2.13
2018-12-15T01:32:10.800Z,2.14
2018-12-15T01:37:24.529Z,2.05
2018-12-15T01:42:37.287Z,2.13
2018-12-15T01:47:50.677Z,2.14
2018-12-15T01:53:16.828Z,1.98
2018-12-15T01:58:30.749Z,2.03
2018-12-15T02:03:42.247Z,2.06
2018-12-15T02:08:55.064Z,2.01
2018-12-15T02:14:07.458Z,2.01
2018-12-15T02:19:21.081Z,1.96
2018-12-15T02:24:33.348Z,1.96
2018-12-15T02:29:47.051Z,1.92
2018-12-15T02:34:59.568Z,1.94
2018-12-15T02:40:16.961Z,1.91
2018-12-15T02:45:28.929Z,1.91
2018-12-15T02:50:41.742Z,1.85
2018-12-15T02:57:53.766Z,1.95
2018-12-15T03:03:28.692Z,1.94
2018-12-15T03:08:42.060Z,1.94
2018-12-15T03:13:53.930Z,1.85
2018-12-15T03:19:14.040Z,1.95
2018-12-15T03:24:25.688Z,1.87
2018-12-15T03:29:38.691Z,1.85
2018-12-15T03:34:50.053Z,1.84
2018-12-15T03:40:02.568Z,1.84
2018-12-15T03:47:56.196Z,1.81
2018-12-15T03:53:06.782Z,1.82
2018-12-15T03:58:19.798Z,1.79
2018-12-15T04:03:31.900Z,1.85
2018-12-15T04:08:44.664Z,1.91
2018-12-15T04:13:56.725Z,1.93
2018-12-15T04:19:09.762Z,1.89
2018-12-15T04:24:20.675Z,1.83
2018-12-15T04:29:33.831Z,1.80
2018-12-15T04:34:45.585Z,1.82
2018-12-15T04:40:46.715Z,1.79
2018-12-15T04:45:59.956Z,1.81
2018-12-15T04:51:12.403Z,1.74
2018-12-15T04:56:26.681Z,1.67
2018-12-15T05:01:37.762Z,1.74
2018-12-15T05:06:50.745Z,1.73
2018-12-15T05:12:02.702Z,1.73
2018-12-15T05:17:16.366Z,1.77
2018-12-15T05:22:27.787Z,1.72
2018-12-15T05:27:42.670Z,1.64
2018-12-15T05:32:53.335Z,1.66
2018-12-15T05:38:06.582Z,1.57
2018-12-15T05:43:17.698Z,1.52
2018-12-15T05:45:47.597Z,1.54
2018-12-15T05:50:59.045Z,1.57
2018-12-15T05:56:12.741Z,1.49
2018-12-15T06:01:23.729Z,1.48
2018-12-15T06:03:54.013Z,1.46
2018-12-15T06:09:08.695Z,1.43
2018-12-15T06:14:20.678Z,1.39
2018-12-15T06:19:32.558Z,1.33
2018-12-15T06:24:43.677Z,1.37
2018-12-15T06:29:56.223Z,1.28
2018-12-15T06:35:09.337Z,1.39
2018-12-15T06:40:22.389Z,1.46
2018-12-15T06:45:33.830Z,1.43
2018-12-15T06:50:46.688Z,1.44
2018-12-15T06:55:59.725Z,1.42
2018-12-15T07:01:09.668Z,1.50
2018-12-15T07:06:22.655Z,1.54
2018-12-15T07:11:35.931Z,1.52
2018-12-15T07:16:49.454Z,1.56
2018-12-15T07:22:02.686Z,1.64
2018-12-15T07:27:15.905Z,1.65
2018-12-15T07:32:27.671Z,1.68
2018-12-15T07:37:39.336Z,1.55
2018-12-15T07:42:51.554Z,1.68
2018-12-15T07:45:21.563Z,1.74
2018-12-15T07:50:34.379Z,1.80
2018-12-15T07:55:46.040Z,1.75
2018-12-15T08:00:57.059Z,1.77
2018-12-15T08:06:09.790Z,1.78
2018-12-15T08:12:26.331Z,1.79
2018-12-15T08:14:56.569Z,1.75
2018-12-15T08:20:12.501Z,1.76
2018-12-15T08:25:23.333Z,1.71
2018-12-15T08:30:36.942Z,1.79
2018-12-15T08:35:48.653Z,1.81
2018-12-15T08:41:00.766Z,1.87
2018-12-15T08:46:18.424Z,1.91
2018-12-15T08:51:31.250Z,1.89
2018-12-15T08:56:43.811Z,1.94
2018-12-15T09:01:55.580Z,1.93
2018-12-15T09:07:08.850Z,1.83
2018-12-15T09:12:20.723Z,1.89
2018-12-15T09:20:15.890Z,1.87
2018-12-15T09:25:28.001Z,1.88
2018-12-15T09:30:41.929Z,1.90
2018-12-15T09:35:54.712Z,1.88
2018-12-15T09:41:06.244Z,1.98
2018-12-15T09:46:19.564Z,1.97
2018-12-15T09:51:30.643Z,2.00
2018-12-15T09:56:43.652Z,2.00
2018-12-15T10:01:55.669Z,1.99
2018-12-15T10:04:25.886Z,1.97
2018-12-15T10:09:39.002Z,1.97
2018-12-15T10:14:50.040Z,2.00
2018-12-15T10:20:03.716Z,1.93
2018-12-15T10:25:16.885Z,1.98
2018-12-15T10:30:34.909Z,2.08
2018-12-15T10:35:46.830Z,2.11
2018-12-15T10:40:58.862Z,2.12
2018-12-15T10:46:12.672Z,2.15
2018-12-15T10:54:05.241Z,2.18
2018-12-15T10:59:18.394Z,2.14
2018-12-15T11:04:30.712Z,2.16
2018-12-15T11:09:44.777Z,2.30
2018-12-15T11:17:35.686Z,2.40
2018-12-15T11:22:47.671Z,2.40
2018-12-15T11:28:00.810Z,2.50
2018-12-15T11:33:11.949Z,2.50
2018-12-15T11:42:04.697Z,2.54
2018-12-15T11:47:17.839Z,2.68
2018-12-15T11:52:29.932Z,2.78
2018-12-15T11:57:45.255Z,2.81
2018-12-15T12:02:59.035Z,2.79
2018-12-15T12:08:11.795Z,2.91
2018-12-15T12:13:23.438Z,3.00
2018-12-15T12:18:36.467Z,3.04
2018-12-15T12:23:48.567Z,3.02
2018-12-15T12:29:01.249Z,2.94
2018-12-15T12:33:32.810Z,3.00
2018-12-15T12:38:45.670Z,2.92
2018-12-15T12:43:57.748Z,2.82
2018-12-15T12:49:10.649Z,2.89
2018-12-15T12:54:22.407Z,2.81
2018-12-15T12:59:35.372Z,2.75
2018-12-15T13:04:46.323Z,2.69
2018-12-15T13:09:59.472Z,2.57
2018-12-15T13:15:11.824Z,2.47
2018-12-15T13:20:24.690Z,2.51
2018-12-15T13:25:36.686Z,2.45
2018-12-15T13:30:48.655Z,2.47
2018-12-15T13:36:20.031Z,2.50
2018-12-15T13:41:31.371Z,2.52
2018-12-15T13:49:24.534Z,2.57
2018-12-15T13:54:36.790Z,2.63
2018-12-15T13:59:48.792Z,2.65
2018-12-15T14:05:00.665Z,2.62
2018-12-15T14:10:12.545Z,2.43
2018-12-15T14:15:24.320Z,2.58
2018-12-15T14:20:37.649Z,2.45
2018-12-15T14:25:49.027Z,2.48
2018-12-15T14:30:13.898Z,2.40
2018-12-15T14:35:25.035Z,2.40
2018-12-15T14:40:36.593Z,2.35
2018-12-15T14:45:47.683Z,2.33
2018-12-15T14:50:59.604Z,2.16
2018-12-15T14:53:29.686Z,2.16
2018-12-15T14:58:42.633Z,2.13
2018-12-15T15:03:53.658Z,2.11
2018-12-15T15:09:08.425Z,2.00
2018-12-15T15:14:20.702Z,2.04
2018-12-15T15:19:33.907Z,1.99
2018-12-15T15:24:45.026Z,1.94
2018-12-15T15:29:57.788Z,1.93
2018-12-15T15:35:10.643Z,1.87
2018-12-15T15:40:23.663Z,1.86
2018-12-15T15:45:35.687Z,1.84
2018-12-15T15:50:49.040Z,1.90
2018-12-15T15:56:03.238Z,1.79
2018-12-15T16:01:14.877Z,1.87
2018-12-15T16:06:28.663Z,1.91
2018-12-15T16:11:39.539Z,1.87
2018-12-15T16:16:52.359Z,1.89
2018-12-15T16:22:03.731Z,1.94
2018-12-15T16:27:16.697Z,1.93
2018-12-15T16:32:27.910Z,1.97
2018-12-15T16:37:41.654Z,1.95
2018-12-15T16:42:54.350Z,1.99
2018-12-15T16:48:07.759Z,1.99
2018-12-15T16:53:19.383Z,2.00
2018-12-15T16:58:30.973Z,2.02
2018-12-15T17:03:43.045Z,2.10
2018-12-15T17:08:55.671Z,2.12
2018-12-15T17:14:07.703Z,2.06
2018-12-15T17:19:20.777Z,2.00
2018-12-15T17:24:32.698Z,1.98
2018-12-15T17:27:02.758Z,1.97
2018-12-15T17:32:15.550Z,2.00
2018-12-15T17:37:28.772Z,2.06
2018-12-15T17:42:40.472Z,2.04
2018-12-15T17:47:53.728Z,2.02
2018-12-15T17:53:10.894Z,2.09
2018-12-15T17:58:23.682Z,2.08
2018-12-15T18:03:35.836Z,2.05
2018-12-15T18:08:47.645Z,2.03
2018-12-15T18:13:59.501Z,1.96
2018-12-15T18:19:13.409Z,1.99
2018-12-15T18:24:38.718Z,2.11
2018-12-15T18:29:51.672Z,2.09
2018-12-15T18:35:03.421Z,2.14
2018-12-15T18:40:16.780Z,2.09
2018-12-15T18:45:27.645Z,2.06
2018-12-15T18:50:40.799Z,2.04
2018-12-15T18:55:52.041Z,1.99
2018-12-15T19:01:03.438Z,1.97
2018-12-15T19:06:16.792Z,1.97
2018-12-15T19:11:28.039Z,2.02
2018-12-15T19:16:40.669Z,1.94
2018-12-15T19:21:51.331Z,1.94
2018-12-15T19:24:22.787Z,1.98
2018-12-15T19:29:35.669Z,1.96
2018-12-15T19:34:52.401Z,2.00
2018-12-15T19:37:19.570Z,2.00
2018-12-15T19:42:32.772Z,1.98
2018-12-15T19:47:45.793Z,1.96
2018-12-15T19:52:57.691Z,1.91
2018-12-15T19:55:27.699Z,1.91
2018-12-15T20:00:40.090Z,1.99
2018-12-15T20:05:52.683Z,1.92
2018-12-15T20:11:04.036Z,2.00
2018-12-15T20:16:19.769Z,1.88
2018-12-15T20:21:35.994Z,1.95
2018-12-15T20:26:46.402Z,1.90
2018-12-15T20:31:58.634Z,1.91
2018-12-15T20:37:11.713Z,1.90
2018-12-15T20:42:24.415Z,1.84
2018-12-15T20:47:37.030Z,1.78
2018-12-15T20:52:49.675Z,1.75
2018-12-15T20:58:08.689Z,1.73
2018-12-15T21:03:19.909Z,1.76
2018-12-15T21:05:49.699Z,1.70
2018-12-15T21:11:01.379Z,1.82
2018-12-15T21:17:08.815Z,1.82
2018-12-15T21:22:20.667Z,1.78
2018-12-15T21:27:33.766Z,1.72
2018-12-15T21:32:46.781Z,1.77
2018-12-15T21:37:59.657Z,1.84
2018-12-15T21:44:53.034Z,1.82
2018-12-15T21:50:08.338Z,1.80
2018-12-15T21:54:11.813Z,1.77
2018-12-15T21:59:24.664Z,1.77
2018-12-15T22:04:37.986Z,1.75
2018-12-15T22:09:51.677Z,1.73
2018-12-15T22:15:04.049Z,1.70
2018-12-15T22:20:18.363Z,1.70
2018-12-15T22:25:30.297Z,1.73
2018-12-15T22:30:43.845Z,1.71
2018-12-15T22:35:56.747Z,1.61
2018-12-15T22:41:08.296Z,1.53
2018-12-15T22:46:20.663Z,1.55
2018-12-15T22:51:31.292Z,1.57
2018-12-15T22:56:44.689Z,1.61
2018-12-15T23:01:54.944Z,1.59
2018-12-15T23:07:08.372Z,1.75
2018-12-15T23:12:19.715Z,1.71
2018-12-15T23:17:33.630Z,1.73
2018-12-15T23:22:46.770Z,1.66
2018-12-15T23:28:00.414Z,1.70
2018-12-15T23:33:11.325Z,1.76
2018-12-15T23:38:24.374Z,1.77
2018-12-15T23:43:42.036Z,1.74
2018-12-15T23:48:54.819Z,1.75
2018-12-15T23:54:06.398Z,1.73
2018-12-15T23:59:19.814Z,1.68
